Go Hawk 5k Hustle
Skip Navigation Links
Results
Leaderboard
10 03 2018
HyperLink
Page 1 of 16 (771 items)
[1]234567...13141516
Pos
Race No
Fav
Share
Print
Video
Name
Time
Category
Cat Pos
Age
Gender
Gen Pos
City
State
Dist
Pace *
Finish
O/Pos
C/Pos
G/Pos
911309Luke Mcmillin00:31:07.3Students5412Male62 IA3.10710:00 min/m00:31:07.3239133139
90939John Souhrada00:31:06.7Teachers/Staff841Male61 IA3.10710:00 min/m00:31:06.72457144
921319Luca Myers00:31:15.2Students5512Male63 IA3.10710:03 min/m00:31:15.2243136142
93401Michael Agan00:31:19.7Students5612Male64 IA3.10710:05 min/m00:31:19.7244137143
941574Jacob Willson00:31:21.3Students5714Male65 IA3.10710:05 min/m00:31:21.3386208219
95420Joseph Britt00:31:24.5Students5812Male66 IA3.10710:06 min/m00:31:24.5250139147
98444Samuel Englin00:31:28.7Students6012Male68 IA3.10710:07 min/m00:31:28.7251140148
97405Taylor Aswegan00:31:28.4Students2412Female30 IA3.10710:07 min/m00:31:28.425290104
961445Tyler Gayer00:31:27.5Students5914Male67 IA3.10710:07 min/m00:31:27.5395213224
991502Brody Mundt00:31:28.7Students6113Male69 IA3.10710:07 min/m00:31:28.7396214225
10028Daniel Bucheit00:31:33.4Students6210Male70 IA3.10710:09 min/m00:31:33.4261718
101450Kaysey Fox00:31:37.3Students2512Female31 IA3.10710:10 min/m00:31:37.325391105
10280Haiden Johnston-Burns00:31:43.3Students6310Male71 IA3.10710:12 min/m00:31:43.3271819
103102Mccoy Mcilravy00:31:46.6Students6411Male72 IA3.10710:13 min/m00:31:46.6281920
1051320Isaiah Myrmo00:31:49.4Students6612Male74 IA3.10710:14 min/m00:31:49.4255142150
104495Joseph Lambert00:31:48.5Students6512Male73 IA3.10710:14 min/m00:31:48.5254141149
10755Lucas Geerts00:31:51.1Students6810Male76 IA3.10710:15 min/m00:31:51.1292021
106310Judah Miller00:31:51.0Students6711Male75 IA3.10710:15 min/m00:31:51.0996468
108373Kaden Swinton00:31:55.7Students6911Male77 IA3.10710:16 min/m00:31:55.71006569
10913Mya Behrends00:31:57.4Students2610Female32 IA3.10710:17 min/m00:31:57.43079
11097Parker Lindley00:32:01.5Students7010Male78 IA3.10710:18 min/m00:32:01.5322223
111151Quinton Schwartz00:32:02.8Students7111Male79 IA3.10710:18 min/m00:32:02.8312122
114311Nathan Miller00:32:17.5Students7411Male82 IA3.10710:23 min/m00:32:17.51056973
112356Levi Schuldt00:32:16.6Students7211Male80 IA3.10710:23 min/m00:32:16.61046872
113357Garrin Schult00:32:16.6Students7311Male81 IA3.10710:23 min/m00:32:16.61036771
115180Gavin Wetherell00:32:26.3Students7510Male83 IA3.10710:26 min/m00:32:26.3342425
116455Sofia Gerst00:32:35.5Students2712Female33 IA3.10710:29 min/m00:32:35.526094108
1171589Jill Boerigter00:32:39.4Teachers/Staff758Female34 IA3.10710:30 min/m00:32:39.426115109
118286Jailyn Kent00:32:40.7Students2811Female35 IA3.10710:31 min/m00:32:40.71113034
120275Peyton Hoffman00:32:45.1Students7711Male85 IA3.10710:32 min/m00:32:45.11097276
122325Collin Obrien00:32:45.9Students7811Male86 IA3.10710:32 min/m00:32:45.91137579
121306Maggie Malone00:32:45.6Students2912Female36 IA3.10710:32 min/m00:32:45.61143135
119212Ethan Bibler00:32:44.2Students7611Male84 IA3.10710:32 min/m00:32:44.21107377
123366Lindi Stevens00:32:47.8Students3011Female37 IA3.10710:33 min/m00:32:47.81163236
124946Madison Walker00:32:52.6Teachers/Staff822Female38 IA3.10710:34 min/m00:32:52.641526183
125378Cameron Toma00:32:56.2Students7911Male87 IA3.10710:36 min/m00:32:56.21217781
127395Sam Wilson00:33:03.9Students8111Male89 IA3.10710:38 min/m00:33:03.91227882
126302Nicolas Liggan00:33:03.7Students8012Male88 IA3.10710:38 min/m00:33:03.71257983
12886Tayler Kibbee00:33:08.0Students8210Male90 IA3.10710:39 min/m00:33:08.0352526
129469Jadon Hobson00:33:26.6Students8312Male91 IA3.10710:45 min/m00:33:26.6271149157
1301367Jack Thorson00:33:30.2Students8412Male92 IA3.10710:47 min/m00:33:30.2272150158
131295Addison Kruse00:33:35.2Students3111Female39 IA3.10710:48 min/m00:33:35.21304044
132210Colton Bergmann00:33:35.8Students8511Male93 IA3.10710:48 min/m00:33:35.81278185
1331467Cale Holmgren00:33:36.2Students8613Male94 IA3.10710:48 min/m00:33:36.2427227238
134220Cody Buchholz00:33:37.2Students8711Male95 IA3.10710:49 min/m00:33:37.21298286
135459Benjamin Haaland00:33:38.2Students8812Male96 IA3.10710:49 min/m00:33:38.2273151159
136200Ryan Austin00:33:45.6Students8911Male97 IA3.10710:51 min/m00:33:45.61338589
1371518Cadence Piersol00:33:46.8Students3213Female40 IA3.10710:52 min/m00:33:46.8429163190
139152Ian Sedgwick00:33:51.7Students9010Male98 IA3.10710:53 min/m00:33:51.7372728
138470Isabella Hoelscher00:33:51.7Students3312Female41 IA3.10710:53 min/m00:33:51.7279104119
Page 1 of 16 (771 items)
[1]234567...13141516
fb